sensor_id;sensor_type;location;lat;lon;timestamp;P1;durP1;ratioP1;P2;durP2;ratioP2
58581;SDS011;44361;51.476;5.700;2022-09-11T00:00:42;51.60;;;25.08;;
58581;SDS011;44361;51.476;5.700;2022-09-11T00:03:08;54.10;;;26.20;;
58581;SDS011;44361;51.476;5.700;2022-09-11T00:05:37;47.60;;;24.52;;
58581;SDS011;44361;51.476;5.700;2022-09-11T00:53:22;68.80;;;30.27;;
58581;SDS011;44361;51.476;5.700;2022-09-11T00:55:50;69.55;;;29.98;;
58581;SDS011;44361;51.476;5.700;2022-09-11T00:58:20;71.72;;;29.88;;
58581;SDS011;44361;51.476;5.700;2022-09-11T01:00:50;67.68;;;29.80;;
58581;SDS011;44361;51.476;5.700;2022-09-11T01:03:17;72.40;;;31.55;;
58581;SDS011;44361;51.476;5.700;2022-09-11T01:05:43;76.32;;;32.03;;
58581;SDS011;44361;51.476;5.700;2022-09-11T01:08:09;70.72;;;31.63;;
58581;SDS011;44361;51.476;5.700;2022-09-11T01:11:00;69.50;;;30.75;;
58581;SDS011;44361;51.476;5.700;2022-09-11T01:16:24;72.15;;;29.00;;
58581;SDS011;44361;51.476;5.700;2022-09-11T01:19:35;69.10;;;29.25;;
58581;SDS011;44361;51.476;5.700;2022-09-11T01:24:54;76.75;;;31.42;;
58581;SDS011;44361;51.476;5.700;2022-09-11T01:30:19;84.35;;;33.45;;
58581;SDS011;44361;51.476;5.700;2022-09-11T01:35:38;83.65;;;32.88;;
58581;SDS011;44361;51.476;5.700;2022-09-11T01:40:48;77.80;;;30.85;;
58581;SDS011;44361;51.476;5.700;2022-09-11T01:43:24;79.30;;;31.08;;
58581;SDS011;44361;51.476;5.700;2022-09-11T01:45:54;73.82;;;30.67;;
58581;SDS011;44361;51.476;5.700;2022-09-11T01:48:24;66.88;;;29.65;;
58581;SDS011;44361;51.476;5.700;2022-09-11T01:50:55;73.63;;;30.45;;
58581;SDS011;44361;51.476;5.700;2022-09-11T01:53:25;85.90;;;33.53;;
58581;SDS011;44361;51.476;5.700;2022-09-11T01:55:57;90.97;;;34.92;;
58581;SDS011;44361;51.476;5.700;2022-09-11T01:58:30;90.90;;;33.00;;
58581;SDS011;44361;51.476;5.700;2022-09-11T02:01:02;85.32;;;32.78;;
58581;SDS011;44361;51.476;5.700;2022-09-11T02:03:35;87.03;;;33.95;;
58581;SDS011;44361;51.476;5.700;2022-09-11T02:06:35;95.57;;;35.25;;
58581;SDS011;44361;51.476;5.700;2022-09-11T02:09:07;94.25;;;33.90;;
58581;SDS011;44361;51.476;5.700;2022-09-11T02:11:38;96.07;;;35.28;;
58581;SDS011;44361;51.476;5.700;2022-09-11T02:14:19;99.32;;;35.78;;
58581;SDS011;44361;51.476;5.700;2022-09-11T02:16:49;92.90;;;34.03;;
58581;SDS011;44361;51.476;5.700;2022-09-11T02:19:36;97.38;;;36.42;;
58581;SDS011;44361;51.476;5.700;2022-09-11T02:22:03;101.90;;;36.97;;
58581;SDS011;44361;51.476;5.700;2022-09-11T02:24:29;95.90;;;34.53;;
58581;SDS011;44361;51.476;5.700;2022-09-11T02:27:02;92.18;;;34.25;;
58581;SDS011;44361;51.476;5.700;2022-09-11T02:29:30;89.60;;;34.85;;
58581;SDS011;44361;51.476;5.700;2022-09-11T02:31:56;89.25;;;33.50;;
58581;SDS011;44361;51.476;5.700;2022-09-11T02:34:25;94.43;;;34.13;;
58581;SDS011;44361;51.476;5.700;2022-09-11T02:51:25;107.25;;;35.22;;
58581;SDS011;44361;51.476;5.700;2022-09-11T02:56:43;86.53;;;31.60;;
58581;SDS011;44361;51.476;5.700;2022-09-11T02:59:19;81.93;;;31.52;;
58581;SDS011;44361;51.476;5.700;2022-09-11T03:01:49;85.22;;;33.03;;
58581;SDS011;44361;51.476;5.700;2022-09-11T03:04:20;95.07;;;33.38;;
58581;SDS011;44361;51.476;5.700;2022-09-11T03:06:48;99.82;;;35.42;;
58581;SDS011;44361;51.476;5.700;2022-09-11T03:09:16;77.28;;;30.52;;
58581;SDS011;44361;51.476;5.700;2022-09-11T03:11:43;83.70;;;32.85;;
58581;SDS011;44361;51.476;5.700;2022-09-11T03:14:09;156.43;;;31.83;;
58581;SDS011;44361;51.476;5.700;2022-09-11T03:16:36;167.88;;;34.28;;
58581;SDS011;44361;51.476;5.700;2022-09-11T03:19:02;106.40;;;35.22;;
58581;SDS011;44361;51.476;5.700;2022-09-11T03:21:28;94.18;;;31.38;;
58581;SDS011;44361;51.476;5.700;2022-09-11T03:23:54;84.85;;;30.42;;
58581;SDS011;44361;51.476;5.700;2022-09-11T03:26:21;93.70;;;33.70;;
58581;SDS011;44361;51.476;5.700;2022-09-11T03:28:47;86.40;;;32.38;;
58581;SDS011;44361;51.476;5.700;2022-09-11T03:31:14;167.07;;;34.30;;
58581;SDS011;44361;51.476;5.700;2022-09-11T03:33:40;87.68;;;32.58;;
58581;SDS011;44361;51.476;5.700;2022-09-11T03:36:05;87.47;;;32.63;;
58581;SDS011;44361;51.476;5.700;2022-09-11T03:38:31;105.70;;;31.80;;
58581;SDS011;44361;51.476;5.700;2022-09-11T03:40:57;83.75;;;31.58;;
58581;SDS011;44361;51.476;5.700;2022-09-11T03:43:22;84.28;;;31.60;;
58581;SDS011;44361;51.476;5.700;2022-09-11T03:45:48;86.30;;;30.45;;
58581;SDS011;44361;51.476;5.700;2022-09-11T03:48:15;87.32;;;31.75;;
58581;SDS011;44361;51.476;5.700;2022-09-11T03:50:43;84.82;;;31.27;;
58581;SDS011;44361;51.476;5.700;2022-09-11T03:53:09;84.60;;;30.63;;
58581;SDS011;44361;51.476;5.700;2022-09-11T03:55:35;84.75;;;30.90;;
58581;SDS011;44361;51.476;5.700;2022-09-11T03:58:01;100.25;;;32.60;;
58581;SDS011;44361;51.476;5.700;2022-09-11T04:00:27;115.53;;;35.92;;
58581;SDS011;44361;51.476;5.700;2022-09-11T04:02:53;116.78;;;35.40;;
58581;SDS011;44361;51.476;5.700;2022-09-11T04:05:19;110.50;;;35.13;;
58581;SDS011;44361;51.476;5.700;2022-09-11T04:07:48;90.50;;;32.88;;
58581;SDS011;44361;51.476;5.700;2022-09-11T04:10:13;90.07;;;33.03;;
58581;SDS011;44361;51.476;5.700;2022-09-11T04:12:39;183.02;;;34.25;;
58581;SDS011;44361;51.476;5.700;2022-09-11T04:15:06;96.45;;;32.10;;
58581;SDS011;44361;51.476;5.700;2022-09-11T04:17:32;100.25;;;34.13;;
58581;SDS011;44361;51.476;5.700;2022-09-11T04:19:58;109.63;;;34.90;;
58581;SDS011;44361;51.476;5.700;2022-09-11T04:22:24;161.60;;;38.00;;
58581;SDS011;44361;51.476;5.700;2022-09-11T04:24:50;115.70;;;36.25;;
58581;SDS011;44361;51.476;5.700;2022-09-11T04:27:16;126.35;;;37.53;;
58581;SDS011;44361;51.476;5.700;2022-09-11T04:29:42;119.78;;;37.40;;
58581;SDS011;44361;51.476;5.700;2022-09-11T04:32:08;128.18;;;37.97;;
58581;SDS011;44361;51.476;5.700;2022-09-11T04:34:35;144.20;;;38.40;;
58581;SDS011;44361;51.476;5.700;2022-09-11T04:37:01;122.55;;;38.50;;
58581;SDS011;44361;51.476;5.700;2022-09-11T04:39:27;118.18;;;35.58;;
58581;SDS011;44361;51.476;5.700;2022-09-11T04:41:53;118.60;;;38.00;;
58581;SDS011;44361;51.476;5.700;2022-09-11T04:44:19;109.18;;;36.33;;
58581;SDS011;44361;51.476;5.700;2022-09-11T04:46:45;104.68;;;34.90;;
58581;SDS011;44361;51.476;5.700;2022-09-11T04:49:11;126.05;;;38.30;;
58581;SDS011;44361;51.476;5.700;2022-09-11T04:51:38;115.10;;;38.28;;
58581;SDS011;44361;51.476;5.700;2022-09-11T04:54:04;127.97;;;38.20;;
58581;SDS011;44361;51.476;5.700;2022-09-11T04:56:32;120.82;;;37.65;;
58581;SDS011;44361;51.476;5.700;2022-09-11T04:59:00;105.90;;;35.45;;
58581;SDS011;44361;51.476;5.700;2022-09-11T05:01:29;105.95;;;36.80;;
58581;SDS011;44361;51.476;5.700;2022-09-11T05:03:56;119.25;;;36.92;;
58581;SDS011;44361;51.476;5.700;2022-09-11T05:06:22;131.00;;;37.58;;
58581;SDS011;44361;51.476;5.700;2022-09-11T05:08:48;151.65;;;39.50;;
58581;SDS011;44361;51.476;5.700;2022-09-11T05:11:15;136.93;;;38.33;;
58581;SDS011;44361;51.476;5.700;2022-09-11T05:13:42;143.77;;;39.33;;
58581;SDS011;44361;51.476;5.700;2022-09-11T05:16:09;127.68;;;38.25;;
58581;SDS011;44361;51.476;5.700;2022-09-11T05:18:36;137.27;;;38.38;;
58581;SDS011;44361;51.476;5.700;2022-09-11T05:21:04;109.28;;;37.08;;
58581;SDS011;44361;51.476;5.700;2022-09-11T05:23:32;139.65;;;38.92;;
58581;SDS011;44361;51.476;5.700;2022-09-11T05:25:58;106.68;;;34.55;;
58581;SDS011;44361;51.476;5.700;2022-09-11T05:28:25;115.32;;;35.90;;
58581;SDS011;44361;51.476;5.700;2022-09-11T05:30:52;134.77;;;37.92;;
58581;SDS011;44361;51.476;5.700;2022-09-11T05:33:18;212.15;;;41.10;;
58581;SDS011;44361;51.476;5.700;2022-09-11T05:35:44;140.13;;;37.60;;
58581;SDS011;44361;51.476;5.700;2022-09-11T05:38:10;197.68;;;37.22;;
58581;SDS011;44361;51.476;5.700;2022-09-11T05:40:39;239.35;;;38.17;;
58581;SDS011;44361;51.476;5.700;2022-09-11T05:43:08;207.02;;;37.03;;
58581;SDS011;44361;51.476;5.700;2022-09-11T05:45:33;184.02;;;36.05;;
58581;SDS011;44361;51.476;5.700;2022-09-11T05:47:59;368.40;;;39.70;;
58581;SDS011;44361;51.476;5.700;2022-09-11T05:50:27;247.00;;;36.92;;
58581;SDS011;44361;51.476;5.700;2022-09-11T05:52:52;134.55;;;36.00;;
58581;SDS011;44361;51.476;5.700;2022-09-11T05:55:18;132.02;;;35.10;;
58581;SDS011;44361;51.476;5.700;2022-09-11T05:57:44;342.73;;;38.20;;
58581;SDS011;44361;51.476;5.700;2022-09-11T06:00:10;238.82;;;36.35;;
58581;SDS011;44361;51.476;5.700;2022-09-11T06:02:38;125.68;;;33.20;;
58581;SDS011;44361;51.476;5.700;2022-09-11T06:05:03;123.82;;;33.53;;
58581;SDS011;44361;51.476;5.700;2022-09-11T06:07:29;192.43;;;34.30;;
58581;SDS011;44361;51.476;5.700;2022-09-11T06:09:55;205.82;;;34.25;;
58581;SDS011;44361;51.476;5.700;2022-09-11T06:12:21;158.52;;;32.90;;
58581;SDS011;44361;51.476;5.700;2022-09-11T06:14:46;109.43;;;30.98;;
58581;SDS011;44361;51.476;5.700;2022-09-11T06:17:12;130.45;;;31.67;;
58581;SDS011;44361;51.476;5.700;2022-09-11T06:19:37;63.85;;;27.95;;
58581;SDS011;44361;51.476;5.700;2022-09-11T06:22:03;73.78;;;29.50;;
58581;SDS011;44361;51.476;5.700;2022-09-11T06:24:28;236.10;;;32.92;;
58581;SDS011;44361;51.476;5.700;2022-09-11T06:26:54;143.35;;;29.85;;
58581;SDS011;44361;51.476;5.700;2022-09-11T06:29:20;76.03;;;29.80;;
58581;SDS011;44361;51.476;5.700;2022-09-11T06:31:45;91.40;;;31.13;;
58581;SDS011;44361;51.476;5.700;2022-09-11T06:34:12;93.70;;;29.63;;
58581;SDS011;44361;51.476;5.700;2022-09-11T06:36:38;111.63;;;30.88;;
58581;SDS011;44361;51.476;5.700;2022-09-11T06:39:04;99.40;;;30.52;;
58581;SDS011;44361;51.476;5.700;2022-09-11T06:41:29;93.97;;;29.63;;
58581;SDS011;44361;51.476;5.700;2022-09-11T06:43:56;111.43;;;28.90;;
58581;SDS011;44361;51.476;5.700;2022-09-11T06:46:22;108.25;;;26.15;;
58581;SDS011;44361;51.476;5.700;2022-09-11T06:48:49;108.80;;;25.65;;
58581;SDS011;44361;51.476;5.700;2022-09-11T06:51:16;238.27;;;29.23;;
58581;SDS011;44361;51.476;5.700;2022-09-11T06:53:43;212.73;;;28.30;;
58581;SDS011;44361;51.476;5.700;2022-09-11T06:56:12;61.50;;;26.15;;
58581;SDS011;44361;51.476;5.700;2022-09-11T06:58:39;148.40;;;26.40;;
58581;SDS011;44361;51.476;5.700;2022-09-11T07:01:06;70.57;;;26.42;;
58581;SDS011;44361;51.476;5.700;2022-09-11T07:03:34;79.78;;;27.85;;
58581;SDS011;44361;51.476;5.700;2022-09-11T07:05:59;65.63;;;26.27;;
58581;SDS011;44361;51.476;5.700;2022-09-11T07:08:26;91.30;;;26.05;;
58581;SDS011;44361;51.476;5.700;2022-09-11T07:10:51;68.03;;;23.85;;
58581;SDS011;44361;51.476;5.700;2022-09-11T07:13:17;55.40;;;25.45;;
58581;SDS011;44361;51.476;5.700;2022-09-11T07:15:43;44.95;;;23.40;;
58581;SDS011;44361;51.476;5.700;2022-09-11T07:18:11;190.30;;;26.95;;
58581;SDS011;44361;51.476;5.700;2022-09-11T07:20:38;82.10;;;23.98;;
58581;SDS011;44361;51.476;5.700;2022-09-11T07:23:04;48.78;;;24.58;;
58581;SDS011;44361;51.476;5.700;2022-09-11T07:25:29;51.97;;;23.30;;
58581;SDS011;44361;51.476;5.700;2022-09-11T07:27:55;64.53;;;22.58;;
58581;SDS011;44361;51.476;5.700;2022-09-11T07:30:20;73.80;;;23.17;;
58581;SDS011;44361;51.476;5.700;2022-09-11T07:32:46;53.13;;;23.67;;
58581;SDS011;44361;51.476;5.700;2022-09-11T07:35:13;65.32;;;21.83;;
58581;SDS011;44361;51.476;5.700;2022-09-11T07:37:45;42.33;;;23.25;;
58581;SDS011;44361;51.476;5.700;2022-09-11T07:40:11;80.32;;;26.15;;
58581;SDS011;44361;51.476;5.700;2022-09-11T07:42:37;56.33;;;22.92;;
58581;SDS011;44361;51.476;5.700;2022-09-11T07:45:02;72.47;;;22.70;;
58581;SDS011;44361;51.476;5.700;2022-09-11T07:47:28;54.05;;;23.92;;
58581;SDS011;44361;51.476;5.700;2022-09-11T07:49:54;54.88;;;23.98;;
58581;SDS011;44361;51.476;5.700;2022-09-11T07:52:20;52.25;;;21.17;;
58581;SDS011;44361;51.476;5.700;2022-09-11T07:54:46;53.88;;;23.50;;
58581;SDS011;44361;51.476;5.700;2022-09-11T07:57:11;104.63;;;21.88;;
58581;SDS011;44361;51.476;5.700;2022-09-11T07:59:37;56.10;;;25.27;;
58581;SDS011;44361;51.476;5.700;2022-09-11T08:02:03;94.97;;;21.98;;
58581;SDS011;44361;51.476;5.700;2022-09-11T08:04:29;96.93;;;21.85;;
58581;SDS011;44361;51.476;5.700;2022-09-11T08:06:54;72.90;;;23.17;;
58581;SDS011;44361;51.476;5.700;2022-09-11T08:09:20;94.57;;;23.27;;
58581;SDS011;44361;51.476;5.700;2022-09-11T08:11:46;54.58;;;25.13;;
58581;SDS011;44361;51.476;5.700;2022-09-11T08:14:13;73.70;;;22.20;;
58581;SDS011;44361;51.476;5.700;2022-09-11T08:16:41;44.53;;;23.83;;
58581;SDS011;44361;51.476;5.700;2022-09-11T08:19:08;39.38;;;22.65;;
58581;SDS011;44361;51.476;5.700;2022-09-11T08:21:38;39.10;;;23.05;;
58581;SDS011;44361;51.476;5.700;2022-09-11T08:24:04;40.00;;;22.52;;
58581;SDS011;44361;51.476;5.700;2022-09-11T08:26:31;41.58;;;23.15;;
58581;SDS011;44361;51.476;5.700;2022-09-11T08:28:59;40.15;;;22.02;;
58581;SDS011;44361;51.476;5.700;2022-09-11T08:31:26;40.72;;;23.95;;
58581;SDS011;44361;51.476;5.700;2022-09-11T08:33:52;38.85;;;23.25;;
58581;SDS011;44361;51.476;5.700;2022-09-11T08:36:19;44.80;;;25.00;;
58581;SDS011;44361;51.476;5.700;2022-09-11T08:38:45;41.03;;;23.02;;
58581;SDS011;44361;51.476;5.700;2022-09-11T08:43:59;38.40;;;22.98;;
58581;SDS011;44361;51.476;5.700;2022-09-11T08:46:35;42.20;;;24.60;;
58581;SDS011;44361;51.476;5.700;2022-09-11T08:51:39;37.83;;;23.48;;
58581;SDS011;44361;51.476;5.700;2022-09-11T08:54:06;43.85;;;24.92;;
58581;SDS011;44361;51.476;5.700;2022-09-11T08:56:44;41.83;;;24.65;;
58581;SDS011;44361;51.476;5.700;2022-09-11T08:59:16;40.83;;;24.60;;
58581;SDS011;44361;51.476;5.700;2022-09-11T09:07:19;41.97;;;24.33;;
58581;SDS011;44361;51.476;5.700;2022-09-11T09:10:15;39.75;;;23.83;;
58581;SDS011;44361;51.476;5.700;2022-09-11T09:18:44;40.85;;;23.75;;
58581;SDS011;44361;51.476;5.700;2022-09-11T09:21:24;40.15;;;23.80;;
58581;SDS011;44361;51.476;5.700;2022-09-11T09:23:55;39.65;;;23.10;;
58581;SDS011;44361;51.476;5.700;2022-09-11T09:26:25;41.47;;;25.20;;
58581;SDS011;44361;51.476;5.700;2022-09-11T09:28:58;34.63;;;21.92;;
58581;SDS011;44361;51.476;5.700;2022-09-11T09:31:29;37.70;;;21.52;;
58581;SDS011;44361;51.476;5.700;2022-09-11T09:34:05;41.65;;;23.90;;
58581;SDS011;44361;51.476;5.700;2022-09-11T09:36:48;35.78;;;22.05;;
58581;SDS011;44361;51.476;5.700;2022-09-11T09:39:35;35.22;;;21.88;;
58581;SDS011;44361;51.476;5.700;2022-09-11T09:47:15;37.75;;;22.02;;
58581;SDS011;44361;51.476;5.700;2022-09-11T09:49:46;36.33;;;21.92;;
58581;SDS011;44361;51.476;5.700;2022-09-11T09:54:42;35.70;;;21.52;;
58581;SDS011;44361;51.476;5.700;2022-09-11T09:57:16;34.10;;;21.80;;
58581;SDS011;44361;51.476;5.700;2022-09-11T09:59:44;31.67;;;20.98;;
58581;SDS011;44361;51.476;5.700;2022-09-11T10:02:32;32.22;;;21.55;;
58581;SDS011;44361;51.476;5.700;2022-09-11T10:05:23;30.17;;;19.88;;
58581;SDS011;44361;51.476;5.700;2022-09-11T10:08:28;28.00;;;18.48;;
58581;SDS011;44361;51.476;5.700;2022-09-11T10:11:10;29.42;;;19.33;;
58581;SDS011;44361;51.476;5.700;2022-09-11T10:13:38;30.17;;;19.55;;
58581;SDS011;44361;51.476;5.700;2022-09-11T10:16:19;26.77;;;18.42;;
58581;SDS011;44361;51.476;5.700;2022-09-11T10:19:07;27.35;;;18.02;;
58581;SDS011;44361;51.476;5.700;2022-09-11T10:22:21;24.48;;;17.58;;
58581;SDS011;44361;51.476;5.700;2022-09-11T10:24:59;32.47;;;18.40;;
58581;SDS011;44361;51.476;5.700;2022-09-11T10:27:31;30.35;;;19.92;;
58581;SDS011;44361;51.476;5.700;2022-09-11T10:30:00;35.78;;;20.98;;
58581;SDS011;44361;51.476;5.700;2022-09-11T10:32:26;33.30;;;20.80;;
58581;SDS011;44361;51.476;5.700;2022-09-11T10:34:53;30.92;;;19.48;;
58581;SDS011;44361;51.476;5.700;2022-09-11T10:37:23;29.95;;;19.50;;
58581;SDS011;44361;51.476;5.700;2022-09-11T10:39:51;30.55;;;19.17;;
58581;SDS011;44361;51.476;5.700;2022-09-11T10:42:27;28.20;;;18.60;;
58581;SDS011;44361;51.476;5.700;2022-09-11T10:44:57;24.30;;;16.67;;
58581;SDS011;44361;51.476;5.700;2022-09-11T10:47:38;25.63;;;16.50;;
58581;SDS011;44361;51.476;5.700;2022-09-11T10:55:28;20.77;;;13.88;;
58581;SDS011;44361;51.476;5.700;2022-09-11T10:58:01;16.88;;;11.45;;
58581;SDS011;44361;51.476;5.700;2022-09-11T11:00:33;18.75;;;12.80;;
58581;SDS011;44361;51.476;5.700;2022-09-11T11:14:04;21.02;;;14.55;;
58581;SDS011;44361;51.476;5.700;2022-09-11T11:22:23;19.25;;;13.60;;
58581;SDS011;44361;51.476;5.700;2022-09-11T11:30:30;25.77;;;16.35;;
58581;SDS011;44361;51.476;5.700;2022-09-11T11:36:01;28.02;;;19.20;;
58581;SDS011;44361;51.476;5.700;2022-09-11T11:40:59;29.20;;;20.00;;
58581;SDS011;44361;51.476;5.700;2022-09-11T11:43:32;24.02;;;16.50;;
58581;SDS011;44361;51.476;5.700;2022-09-11T11:46:24;18.90;;;13.65;;
58581;SDS011;44361;51.476;5.700;2022-09-11T11:49:16;15.45;;;11.23;;
58581;SDS011;44361;51.476;5.700;2022-09-11T11:52:11;19.95;;;13.00;;
58581;SDS011;44361;51.476;5.700;2022-09-11T11:54:41;16.95;;;11.98;;
58581;SDS011;44361;51.476;5.700;2022-09-11T11:57:20;19.77;;;13.90;;
58581;SDS011;44361;51.476;5.700;2022-09-11T11:59:54;20.02;;;13.45;;
58581;SDS011;44361;51.476;5.700;2022-09-11T12:03:12;21.67;;;13.48;;
58581;SDS011;44361;51.476;5.700;2022-09-11T12:05:47;20.15;;;13.70;;
58581;SDS011;44361;51.476;5.700;2022-09-11T12:08:13;14.93;;;10.77;;
58581;SDS011;44361;51.476;5.700;2022-09-11T12:10:41;13.02;;;9.80;;
58581;SDS011;44361;51.476;5.700;2022-09-11T12:13:12;13.10;;;8.60;;
58581;SDS011;44361;51.476;5.700;2022-09-11T12:16:00;15.43;;;8.57;;
58581;SDS011;44361;51.476;5.700;2022-09-11T12:18:26;11.43;;;8.87;;
58581;SDS011;44361;51.476;5.700;2022-09-11T12:20:53;18.70;;;11.25;;
58581;SDS011;44361;51.476;5.700;2022-09-11T12:26:20;18.10;;;11.50;;
58581;SDS011;44361;51.476;5.700;2022-09-11T12:31:13;14.75;;;9.98;;
58581;SDS011;44361;51.476;5.700;2022-09-11T12:36:28;16.27;;;9.57;;
58581;SDS011;44361;51.476;5.700;2022-09-11T12:41:39;13.25;;;9.05;;
58581;SDS011;44361;51.476;5.700;2022-09-11T12:44:16;18.52;;;9.30;;
58581;SDS011;44361;51.476;5.700;2022-09-11T12:49:21;10.05;;;6.90;;
58581;SDS011;44361;51.476;5.700;2022-09-11T12:51:50;10.23;;;6.28;;
58581;SDS011;44361;51.476;5.700;2022-09-11T12:54:23;11.98;;;6.40;;
58581;SDS011;44361;51.476;5.700;2022-09-11T12:57:36;10.75;;;7.25;;
58581;SDS011;44361;51.476;5.700;2022-09-11T12:59:43;10.43;;;5.60;;
58581;SDS011;44361;51.476;5.700;2022-09-11T13:04:44;6.35;;;4.80;;
58581;SDS011;44361;51.476;5.700;2022-09-11T13:07:19;6.97;;;5.13;;
58581;SDS011;44361;51.476;5.700;2022-09-11T13:09:51;6.72;;;4.32;;
58581;SDS011;44361;51.476;5.700;2022-09-11T13:14:50;6.53;;;3.60;;
58581;SDS011;44361;51.476;5.700;2022-09-11T13:20:35;6.72;;;3.90;;
58581;SDS011;44361;51.476;5.700;2022-09-11T13:22:51;3.55;;;2.78;;
58581;SDS011;44361;51.476;5.700;2022-09-11T13:27:51;3.80;;;2.60;;
58581;SDS011;44361;51.476;5.700;2022-09-11T13:30:20;6.72;;;3.38;;
58581;SDS011;44361;51.476;5.700;2022-09-11T13:32:47;7.55;;;3.95;;
58581;SDS011;44361;51.476;5.700;2022-09-11T13:35:16;4.72;;;3.25;;
58581;SDS011;44361;51.476;5.700;2022-09-11T13:37:51;7.28;;;3.65;;
58581;SDS011;44361;51.476;5.700;2022-09-11T13:40:29;6.72;;;3.40;;
58581;SDS011;44361;51.476;5.700;2022-09-11T13:42:59;5.40;;;3.35;;
58581;SDS011;44361;51.476;5.700;2022-09-11T13:45:26;6.32;;;2.70;;
58581;SDS011;44361;51.476;5.700;2022-09-11T13:47:52;10.27;;;3.70;;
58581;SDS011;44361;51.476;5.700;2022-09-11T13:50:18;4.35;;;2.30;;
58581;SDS011;44361;51.476;5.700;2022-09-11T13:52:46;4.57;;;2.28;;
58581;SDS011;44361;51.476;5.700;2022-09-11T13:55:19;6.45;;;3.10;;
58581;SDS011;44361;51.476;5.700;2022-09-11T13:57:57;6.97;;;3.28;;
58581;SDS011;44361;51.476;5.700;2022-09-11T14:00:39;6.30;;;3.10;;
58581;SDS011;44361;51.476;5.700;2022-09-11T14:05:57;6.18;;;2.90;;
58581;SDS011;44361;51.476;5.700;2022-09-11T14:08:26;5.40;;;4.00;;
58581;SDS011;44361;51.476;5.700;2022-09-11T14:11:09;8.45;;;4.38;;
58581;SDS011;44361;51.476;5.700;2022-09-11T14:13:43;5.20;;;3.92;;
58581;SDS011;44361;51.476;5.700;2022-09-11T14:16:18;5.45;;;3.85;;
58581;SDS011;44361;51.476;5.700;2022-09-11T14:18:59;4.50;;;3.60;;
58581;SDS011;44361;51.476;5.700;2022-09-11T14:21:48;3.92;;;3.28;;
58581;SDS011;44361;51.476;5.700;2022-09-11T14:24:26;5.70;;;3.60;;
58581;SDS011;44361;51.476;5.700;2022-09-11T14:27:02;6.10;;;4.20;;
58581;SDS011;44361;51.476;5.700;2022-09-11T14:29:52;6.82;;;4.90;;
58581;SDS011;44361;51.476;5.700;2022-09-11T14:32:32;7.38;;;5.53;;
58581;SDS011;44361;51.476;5.700;2022-09-11T14:35:01;8.38;;;4.65;;
58581;SDS011;44361;51.476;5.700;2022-09-11T14:37:31;9.45;;;5.50;;
58581;SDS011;44361;51.476;5.700;2022-09-11T14:40:02;8.27;;;4.85;;
58581;SDS011;44361;51.476;5.700;2022-09-11T14:42:33;8.63;;;6.60;;
58581;SDS011;44361;51.476;5.700;2022-09-11T14:45:07;9.45;;;5.88;;
58581;SDS011;44361;51.476;5.700;2022-09-11T14:47:44;6.40;;;5.30;;
58581;SDS011;44361;51.476;5.700;2022-09-11T14:50:11;8.63;;;6.22;;
58581;SDS011;44361;51.476;5.700;2022-09-11T14:52:37;11.18;;;6.43;;
58581;SDS011;44361;51.476;5.700;2022-09-11T14:55:05;9.18;;;5.95;;
58581;SDS011;44361;51.476;5.700;2022-09-11T14:57:33;7.82;;;5.93;;
58581;SDS011;44361;51.476;5.700;2022-09-11T14:59:59;8.73;;;5.13;;
58581;SDS011;44361;51.476;5.700;2022-09-11T15:02:28;6.97;;;4.40;;
58581;SDS011;44361;51.476;5.700;2022-09-11T15:04:54;6.07;;;4.47;;
58581;SDS011;44361;51.476;5.700;2022-09-11T15:07:21;10.13;;;6.15;;
58581;SDS011;44361;51.476;5.700;2022-09-11T15:09:48;7.85;;;5.30;;
58581;SDS011;44361;51.476;5.700;2022-09-11T15:12:17;11.55;;;6.45;;
58581;SDS011;44361;51.476;5.700;2022-09-11T15:14:43;6.70;;;5.32;;
58581;SDS011;44361;51.476;5.700;2022-09-11T15:17:10;7.38;;;5.28;;
58581;SDS011;44361;51.476;5.700;2022-09-11T15:19:38;8.20;;;5.63;;
58581;SDS011;44361;51.476;5.700;2022-09-11T15:22:12;9.80;;;5.65;;
58581;SDS011;44361;51.476;5.700;2022-09-11T15:24:38;8.70;;;6.35;;
58581;SDS011;44361;51.476;5.700;2022-09-11T15:27:05;8.38;;;5.72;;
58581;SDS011;44361;51.476;5.700;2022-09-11T15:29:31;9.32;;;6.40;;
58581;SDS011;44361;51.476;5.700;2022-09-11T15:31:58;10.25;;;6.80;;
58581;SDS011;44361;51.476;5.700;2022-09-11T15:34:26;10.52;;;6.80;;
58581;SDS011;44361;51.476;5.700;2022-09-11T15:36:58;9.57;;;6.28;;
58581;SDS011;44361;51.476;5.700;2022-09-11T15:39:24;7.97;;;6.20;;
58581;SDS011;44361;51.476;5.700;2022-09-11T15:41:51;8.45;;;7.10;;
58581;SDS011;44361;51.476;5.700;2022-09-11T15:44:22;10.15;;;7.15;;
58581;SDS011;44361;51.476;5.700;2022-09-11T15:46:50;9.27;;;6.70;;
58581;SDS011;44361;51.476;5.700;2022-09-11T15:49:18;9.90;;;6.00;;
58581;SDS011;44361;51.476;5.700;2022-09-11T15:51:45;9.32;;;5.63;;
58581;SDS011;44361;51.476;5.700;2022-09-11T15:54:11;9.75;;;5.68;;
58581;SDS011;44361;51.476;5.700;2022-09-11T15:56:39;7.78;;;6.05;;
58581;SDS011;44361;51.476;5.700;2022-09-11T15:59:06;7.80;;;6.38;;
58581;SDS011;44361;51.476;5.700;2022-09-11T16:01:32;8.75;;;6.40;;
58581;SDS011;44361;51.476;5.700;2022-09-11T16:04:03;9.65;;;6.78;;
58581;SDS011;44361;51.476;5.700;2022-09-11T16:06:32;9.30;;;6.25;;
58581;SDS011;44361;51.476;5.700;2022-09-11T16:09:00;13.48;;;6.43;;
58581;SDS011;44361;51.476;5.700;2022-09-11T16:11:30;8.70;;;6.80;;
58581;SDS011;44361;51.476;5.700;2022-09-11T16:13:57;9.05;;;7.10;;
58581;SDS011;44361;51.476;5.700;2022-09-11T16:16:23;8.27;;;7.13;;
58581;SDS011;44361;51.476;5.700;2022-09-11T16:18:55;10.95;;;6.38;;
58581;SDS011;44361;51.476;5.700;2022-09-11T16:21:22;11.68;;;7.68;;
58581;SDS011;44361;51.476;5.700;2022-09-11T16:23:48;9.15;;;6.20;;
58581;SDS011;44361;51.476;5.700;2022-09-11T16:26:16;7.35;;;5.45;;
58581;SDS011;44361;51.476;5.700;2022-09-11T16:28:44;7.43;;;6.10;;
58581;SDS011;44361;51.476;5.700;2022-09-11T16:31:11;7.35;;;4.78;;
58581;SDS011;44361;51.476;5.700;2022-09-11T16:33:39;9.10;;;5.47;;
58581;SDS011;44361;51.476;5.700;2022-09-11T16:36:18;8.82;;;5.30;;
58581;SDS011;44361;51.476;5.700;2022-09-11T16:38:47;7.93;;;5.90;;
58581;SDS011;44361;51.476;5.700;2022-09-11T16:41:18;7.07;;;5.22;;
58581;SDS011;44361;51.476;5.700;2022-09-11T16:43:46;5.43;;;4.55;;
58581;SDS011;44361;51.476;5.700;2022-09-11T16:46:13;8.52;;;5.38;;
58581;SDS011;44361;51.476;5.700;2022-09-11T16:48:41;6.50;;;4.50;;
58581;SDS011;44361;51.476;5.700;2022-09-11T16:51:08;10.82;;;4.90;;
58581;SDS011;44361;51.476;5.700;2022-09-11T16:53:34;7.55;;;5.10;;
58581;SDS011;44361;51.476;5.700;2022-09-11T16:56:03;8.07;;;4.80;;
58581;SDS011;44361;51.476;5.700;2022-09-11T16:58:30;7.10;;;5.88;;
58581;SDS011;44361;51.476;5.700;2022-09-11T17:00:58;6.35;;;4.85;;
58581;SDS011;44361;51.476;5.700;2022-09-11T17:03:28;8.02;;;5.38;;
58581;SDS011;44361;51.476;5.700;2022-09-11T17:05:54;9.00;;;5.50;;
58581;SDS011;44361;51.476;5.700;2022-09-11T17:08:20;6.93;;;4.75;;
58581;SDS011;44361;51.476;5.700;2022-09-11T17:10:47;8.05;;;4.38;;
58581;SDS011;44361;51.476;5.700;2022-09-11T17:13:18;7.80;;;4.40;;
58581;SDS011;44361;51.476;5.700;2022-09-11T17:15:43;9.73;;;5.30;;
58581;SDS011;44361;51.476;5.700;2022-09-11T17:18:09;8.40;;;5.20;;
58581;SDS011;44361;51.476;5.700;2022-09-11T17:20:35;8.70;;;4.93;;
58581;SDS011;44361;51.476;5.700;2022-09-11T17:23:01;9.00;;;4.85;;